createdAt,value
2023-02-16T00:00:47.616Z,92.35
2023-02-16T00:03:21.108Z,95.20
2023-02-16T00:05:51.057Z,96.10
2023-02-16T00:08:19.343Z,91.00
2023-02-16T00:11:08.470Z,92.50
2023-02-16T00:13:45.188Z,92.15
2023-02-16T00:16:19.066Z,91.82
2023-02-16T00:18:49.540Z,97.85
2023-02-16T00:21:18.760Z,91.15
2023-02-16T00:23:48.552Z,92.40
2023-02-16T00:26:19.301Z,94.82
2023-02-16T00:28:47.549Z,91.43
2023-02-16T00:31:21.490Z,96.03
2023-02-16T00:33:51.428Z,94.78
2023-02-16T00:36:19.668Z,92.22
2023-02-16T00:38:48.211Z,100.10
2023-02-16T00:41:33.039Z,96.07
2023-02-16T00:44:01.406Z,94.75
2023-02-16T00:46:29.672Z,96.43
2023-02-16T00:48:59.335Z,96.68
2023-02-16T00:51:28.175Z,101.00
2023-02-16T00:53:56.584Z,101.32
2023-02-16T00:56:24.781Z,96.15
2023-02-16T00:58:55.358Z,95.07
2023-02-16T01:01:27.107Z,98.82
2023-02-16T01:03:55.566Z,102.90
2023-02-16T01:06:42.847Z,101.47
2023-02-16T01:09:32.462Z,101.47
2023-02-16T01:12:01.250Z,98.45
2023-02-16T01:14:32.043Z,100.00
2023-02-16T01:17:00.715Z,100.47
2023-02-16T01:19:29.034Z,95.75
2023-02-16T01:21:59.413Z,98.10
2023-02-16T01:24:27.786Z,102.97
2023-02-16T01:26:56.013Z,101.78
2023-02-16T01:29:24.320Z,98.50
2023-02-16T01:31:52.859Z,100.95
2023-02-16T01:34:21.164Z,97.50
2023-02-16T01:36:50.462Z,102.18
2023-02-16T01:39:22.467Z,101.63
2023-02-16T01:42:12.097Z,101.13
2023-02-16T01:44:46.321Z,99.90
2023-02-16T01:47:30.613Z,107.63
2023-02-16T01:50:00.786Z,98.13
2023-02-16T01:52:35.611Z,100.90
2023-02-16T01:55:11.544Z,103.20
2023-02-16T01:57:45.271Z,99.97
2023-02-16T02:02:47.873Z,97.65
2023-02-16T02:05:37.016Z,97.57
2023-02-16T02:08:13.402Z,98.93
2023-02-16T02:10:53.064Z,96.00
2023-02-16T02:13:25.798Z,97.28
2023-02-16T02:15:54.298Z,92.73
2023-02-16T02:18:22.795Z,91.97
2023-02-16T02:21:21.501Z,96.85
2023-02-16T02:24:25.351Z,96.60
2023-02-16T02:27:16.146Z,96.30
2023-02-16T02:30:09.693Z,94.50
2023-02-16T02:32:56.729Z,91.18
2023-02-16T02:35:36.920Z,91.25
2023-02-16T02:38:13.039Z,93.35
2023-02-16T02:40:55.771Z,96.75
2023-02-16T02:43:32.723Z,93.45
2023-02-16T02:46:08.287Z,90.05
2023-02-16T02:48:37.339Z,88.72
2023-02-16T02:51:33.655Z,86.97
2023-02-16T02:54:22.812Z,87.97
2023-02-16T02:57:14.814Z,82.07
2023-02-16T03:00:06.424Z,89.38
2023-02-16T03:02:38.171Z,83.65
2023-02-16T03:05:10.035Z,86.13
2023-02-16T03:07:48.806Z,83.90
2023-02-16T03:10:36.917Z,86.40
2023-02-16T03:13:09.123Z,85.78
2023-02-16T03:15:41.354Z,83.38
2023-02-16T03:18:29.535Z,81.70
2023-02-16T03:21:16.425Z,87.05
2023-02-16T03:24:04.359Z,84.43
2023-02-16T03:26:51.588Z,85.65
2023-02-16T03:29:22.685Z,83.93
2023-02-16T03:31:55.016Z,84.15
2023-02-16T03:34:23.632Z,79.93
2023-02-16T03:36:58.668Z,80.40
2023-02-16T03:39:27.678Z,79.45
2023-02-16T03:41:57.810Z,78.57
2023-02-16T03:44:26.577Z,77.15
2023-02-16T03:46:56.295Z,79.03
2023-02-16T03:49:24.441Z,81.40
2023-02-16T03:51:52.810Z,78.13
2023-02-16T03:54:21.360Z,77.88
2023-02-16T03:56:49.992Z,76.65
2023-02-16T03:59:20.493Z,76.50
2023-02-16T04:01:48.973Z,79.47
2023-02-16T04:04:18.682Z,77.25
2023-02-16T04:06:47.149Z,78.95
2023-02-16T04:09:15.459Z,77.53
2023-02-16T04:12:01.204Z,77.40
2023-02-16T04:14:29.602Z,81.47
2023-02-16T04:16:57.794Z,73.25
2023-02-16T04:19:27.519Z,79.63
2023-02-16T04:21:56.064Z,77.50
2023-02-16T04:24:24.530Z,77.35
2023-02-16T04:26:52.851Z,79.13
2023-02-16T04:29:21.290Z,74.90
2023-02-16T04:31:49.895Z,80.10
2023-02-16T04:34:18.513Z,75.55
2023-02-16T04:36:48.420Z,78.10
2023-02-16T04:39:16.662Z,75.28
2023-02-16T04:41:45.325Z,74.97
2023-02-16T04:44:13.769Z,71.82
2023-02-16T04:46:42.006Z,74.35
2023-02-16T04:49:10.443Z,72.38
2023-02-16T04:51:40.039Z,74.97
2023-02-16T04:54:09.996Z,80.05
2023-02-16T04:56:38.690Z,75.63
2023-02-16T04:59:07.114Z,73.47
2023-02-16T05:01:35.408Z,71.93
2023-02-16T05:04:03.722Z,73.32
2023-02-16T05:06:32.122Z,76.47
2023-02-16T05:09:00.366Z,75.82
2023-02-16T05:11:47.392Z,73.82
2023-02-16T05:14:37.457Z,72.47
2023-02-16T05:17:06.071Z,72.75
2023-02-16T05:19:34.304Z,74.28
2023-02-16T05:22:02.640Z,75.93
2023-02-16T05:24:30.896Z,79.15
2023-02-16T05:27:00.842Z,72.72
2023-02-16T05:29:29.170Z,72.68
2023-02-16T05:31:57.782Z,75.07
2023-02-16T05:34:26.108Z,72.20
2023-02-16T05:36:57.546Z,73.38
2023-02-16T05:39:25.885Z,75.93
2023-02-16T05:41:54.217Z,73.95
2023-02-16T05:44:24.027Z,73.75
2023-02-16T05:46:52.381Z,74.03
2023-02-16T05:49:20.606Z,72.43
2023-02-16T05:51:48.904Z,72.80
2023-02-16T05:54:18.383Z,73.10
2023-02-16T05:56:47.746Z,73.53
2023-02-16T05:59:16.823Z,69.13
2023-02-16T06:01:51.216Z,70.55
2023-02-16T06:04:20.924Z,70.60
2023-02-16T06:06:49.321Z,71.78
2023-02-16T06:09:17.875Z,68.18
2023-02-16T06:11:46.277Z,67.85
2023-02-16T06:14:16.695Z,72.60
2023-02-16T06:16:48.401Z,70.22
2023-02-16T06:19:18.999Z,69.93
2023-02-16T06:21:47.648Z,69.88
2023-02-16T06:24:16.462Z,73.35
2023-02-16T06:26:44.785Z,70.78
2023-02-16T06:29:12.983Z,67.20
2023-02-16T06:31:41.658Z,69.13
2023-02-16T06:34:11.514Z,66.55
2023-02-16T06:36:42.430Z,66.60
2023-02-16T06:39:10.917Z,67.82
2023-02-16T06:41:40.588Z,67.68
2023-02-16T06:44:12.398Z,67.45
2023-02-16T06:46:41.494Z,65.90
2023-02-16T06:49:13.731Z,72.07
2023-02-16T06:51:42.657Z,68.40
2023-02-16T06:54:10.979Z,73.97
2023-02-16T06:56:39.174Z,71.43
2023-02-16T06:59:07.784Z,70.65
2023-02-16T07:01:36.121Z,69.78
2023-02-16T07:04:04.397Z,69.25
2023-02-16T07:06:34.214Z,68.32
2023-02-16T07:09:02.534Z,68.78
2023-02-16T07:11:30.940Z,66.72
2023-02-16T07:13:59.377Z,67.82
2023-02-16T07:16:27.716Z,67.03
2023-02-16T07:18:56.033Z,68.00
2023-02-16T07:21:24.374Z,65.03
2023-02-16T07:23:53.972Z,71.75
2023-02-16T07:26:22.221Z,66.28
2023-02-16T07:28:50.679Z,68.28
2023-02-16T07:31:19.571Z,64.65
2023-02-16T07:33:47.881Z,68.85
2023-02-16T07:36:16.444Z,67.22
2023-02-16T07:38:44.630Z,69.25
2023-02-16T07:41:14.297Z,65.75
2023-02-16T07:43:43.188Z,70.88
2023-02-16T07:46:12.009Z,69.88
2023-02-16T07:48:40.265Z,74.00
2023-02-16T07:51:08.711Z,70.20
2023-02-16T07:53:37.243Z,69.35
2023-02-16T07:56:05.964Z,72.93
2023-02-16T07:58:37.044Z,68.35
2023-02-16T08:01:11.003Z,75.32
2023-02-16T08:03:39.500Z,71.82
2023-02-16T08:06:08.779Z,70.10
2023-02-16T08:08:37.604Z,71.53
2023-02-16T08:11:11.235Z,71.95
2023-02-16T08:16:10.445Z,70.30
2023-02-16T08:18:39.059Z,73.88
2023-02-16T08:21:14.465Z,70.97
2023-02-16T08:23:47.636Z,75.80
2023-02-16T08:26:18.368Z,73.38
2023-02-16T08:28:50.222Z,75.85
2023-02-16T08:31:20.723Z,70.65
2023-02-16T08:33:49.123Z,72.32
2023-02-16T08:36:21.607Z,71.03
2023-02-16T08:38:51.109Z,76.28
2023-02-16T08:41:19.891Z,74.30
2023-02-16T08:43:50.142Z,74.32
2023-02-16T08:46:18.843Z,71.68
2023-02-16T08:48:47.500Z,73.80
2023-02-16T08:51:17.897Z,73.32
2023-02-16T08:53:46.679Z,71.88
2023-02-16T08:56:16.880Z,73.22
2023-02-16T08:58:45.476Z,71.13
2023-02-16T09:01:16.608Z,72.50
2023-02-16T09:03:47.310Z,72.82
2023-02-16T09:06:17.239Z,75.50
2023-02-16T09:08:46.625Z,77.10
2023-02-16T09:11:16.751Z,69.93
2023-02-16T09:13:46.954Z,75.57
2023-02-16T09:16:18.565Z,74.82
2023-02-16T09:18:48.039Z,70.50
2023-02-16T09:21:19.625Z,70.13
2023-02-16T09:23:50.074Z,68.25
2023-02-16T09:26:20.491Z,67.25
2023-02-16T09:28:50.510Z,67.13
2023-02-16T09:31:25.936Z,67.85
2023-02-16T09:33:56.239Z,67.07
2023-02-16T09:36:25.319Z,63.17
2023-02-16T09:38:54.632Z,63.28
2023-02-16T09:41:33.780Z,62.88
2023-02-16T09:44:08.101Z,63.67
2023-02-16T09:46:38.706Z,59.95
2023-02-16T09:49:08.446Z,62.92
2023-02-16T09:51:41.327Z,61.63
2023-02-16T09:54:22.973Z,60.72
2023-02-16T09:56:58.428Z,60.92
2023-02-16T09:59:39.188Z,60.60
2023-02-16T10:02:35.135Z,59.72
2023-02-16T10:05:22.078Z,61.38
2023-02-16T10:08:04.111Z,57.13
2023-02-16T10:10:40.223Z,58.35
2023-02-16T10:13:16.990Z,59.50
2023-02-16T10:15:46.650Z,56.17
2023-02-16T10:18:23.431Z,57.95
2023-02-16T10:20:56.510Z,57.78
2023-02-16T10:23:43.682Z,53.67
2023-02-16T10:26:18.404Z,58.53
2023-02-16T10:28:49.699Z,53.92
2023-02-16T10:31:25.484Z,55.42
2023-02-16T10:34:19.535Z,54.10
2023-02-16T10:37:18.617Z,53.70
2023-02-16T10:39:55.920Z,52.28
2023-02-16T10:42:35.269Z,50.13
2023-02-16T10:45:15.632Z,47.38
2023-02-16T10:47:46.387Z,52.33
2023-02-16T10:50:24.189Z,51.03
2023-02-16T10:52:56.165Z,47.70
2023-02-16T10:55:24.684Z,48.88
2023-02-16T10:57:56.094Z,49.88
2023-02-16T11:00:35.065Z,51.42
2023-02-16T11:03:04.586Z,49.53
2023-02-16T11:05:38.172Z,49.67
2023-02-16T11:08:11.425Z,49.15
2023-02-16T11:10:43.813Z,47.65
2023-02-16T11:13:30.097Z,46.60
2023-02-16T11:16:01.645Z,48.03
2023-02-16T11:18:36.480Z,49.35
2023-02-16T11:21:08.271Z,48.92
2023-02-16T11:23:38.139Z,48.00
2023-02-16T11:26:22.490Z,46.00
2023-02-16T11:28:51.629Z,44.45
2023-02-16T11:31:31.646Z,44.22
2023-02-16T11:34:05.830Z,40.00
2023-02-16T11:36:39.409Z,38.60
2023-02-16T11:39:16.450Z,40.13
2023-02-16T11:41:47.201Z,38.95
2023-02-16T11:44:27.523Z,40.70
2023-02-16T11:46:57.669Z,39.80
2023-02-16T11:49:35.721Z,37.65
2023-02-16T11:52:21.028Z,36.45
2023-02-16T11:54:53.303Z,38.80
2023-02-16T11:57:27.039Z,37.13
2023-02-16T11:59:56.292Z,37.53
2023-02-16T12:02:58.230Z,38.35
2023-02-16T12:05:33.859Z,39.00
2023-02-16T12:08:26.135Z,39.95
2023-02-16T12:11:19.662Z,36.67
2023-02-16T12:14:02.238Z,36.97
2023-02-16T12:16:43.207Z,39.55
2023-02-16T12:19:26.289Z,33.88
2023-02-16T12:22:02.897Z,33.67
2023-02-16T12:24:44.510Z,35.70
2023-02-16T12:27:19.903Z,36.70
2023-02-16T12:29:54.940Z,36.58
2023-02-16T12:32:39.376Z,34.50
2023-02-16T12:35:21.949Z,35.70
2023-02-16T12:37:57.428Z,36.55
2023-02-16T12:40:39.552Z,37.78
2023-02-16T12:43:25.533Z,37.78
2023-02-16T12:45:56.926Z,39.97
2023-02-16T12:48:40.447Z,39.88
2023-02-16T12:51:12.972Z,36.88
2023-02-16T12:53:48.198Z,41.25
2023-02-16T12:56:21.843Z,39.05
2023-02-16T13:01:26.058Z,39.85
2023-02-16T13:03:58.863Z,40.10
2023-02-16T13:06:32.904Z,37.60
2023-02-16T13:09:11.719Z,40.35
2023-02-16T13:11:47.579Z,35.92
2023-02-16T13:14:20.197Z,37.80
2023-02-16T13:16:52.849Z,35.10
2023-02-16T13:19:21.762Z,36.15
2023-02-16T13:22:31.576Z,33.28
2023-02-16T13:25:23.157Z,34.75
2023-02-16T13:28:03.057Z,35.25
2023-02-16T13:30:58.797Z,35.40
2023-02-16T13:33:48.878Z,36.33
2023-02-16T13:36:41.524Z,33.38
2023-02-16T13:39:26.646Z,33.63
2023-02-16T13:42:21.919Z,36.17
2023-02-16T13:44:56.001Z,33.03
2023-02-16T13:47:29.070Z,34.25
2023-02-16T13:50:00.390Z,32.47
2023-02-16T13:52:35.199Z,33.72
2023-02-16T13:55:08.331Z,32.78
2023-02-16T13:58:04.994Z,28.60
2023-02-16T14:00:38.026Z,31.67
2023-02-16T14:03:13.584Z,31.05
2023-02-16T14:05:43.856Z,32.92
2023-02-16T14:08:21.882Z,28.73
2023-02-16T14:11:12.056Z,26.15
2023-02-16T14:13:51.638Z,28.45
2023-02-16T14:16:45.034Z,30.00
2023-02-16T14:19:23.868Z,33.33
2023-02-16T14:21:53.190Z,30.80
2023-02-16T14:24:31.535Z,30.52
2023-02-16T14:27:01.416Z,31.35
2023-02-16T14:29:33.450Z,29.08
2023-02-16T14:32:08.321Z,34.78
2023-02-16T14:34:43.728Z,30.33
2023-02-16T14:37:31.745Z,32.95
2023-02-16T14:40:19.192Z,30.02
2023-02-16T14:42:57.290Z,31.35
2023-02-16T14:46:18.144Z,31.20
2023-02-16T14:49:15.492Z,30.00
2023-02-16T14:52:21.350Z,27.77
2023-02-16T14:55:09.380Z,26.13
2023-02-16T14:57:44.502Z,25.65
2023-02-16T15:00:19.836Z,30.73
2023-02-16T15:02:58.495Z,29.02
2023-02-16T15:05:32.433Z,30.25
2023-02-16T15:08:10.487Z,29.08
2023-02-16T15:10:41.085Z,28.80
2023-02-16T15:13:09.864Z,30.73
2023-02-16T15:15:47.231Z,32.83
2023-02-16T15:18:18.716Z,32.63
2023-02-16T15:20:51.456Z,33.63
2023-02-16T15:23:22.132Z,35.97
2023-02-16T15:26:00.215Z,36.38
2023-02-16T15:28:30.862Z,34.78
2023-02-16T15:31:00.508Z,37.08
2023-02-16T15:33:37.878Z,34.60
2023-02-16T15:36:12.088Z,36.08
2023-02-16T15:38:42.128Z,33.58
2023-02-16T15:41:15.334Z,31.70
2023-02-16T15:43:50.436Z,34.80
2023-02-16T15:46:26.611Z,36.28
2023-02-16T15:48:55.171Z,31.25
2023-02-16T15:51:29.069Z,35.78
2023-02-16T15:53:59.088Z,29.65
2023-02-16T15:56:31.571Z,34.25
2023-02-16T15:59:02.827Z,34.22
2023-02-16T16:01:36.524Z,33.55
2023-02-16T16:04:08.869Z,31.83
2023-02-16T16:06:41.148Z,32.17
2023-02-16T16:09:21.763Z,29.80
2023-02-16T16:11:51.863Z,31.02
2023-02-16T16:14:20.847Z,30.10
2023-02-16T16:16:49.774Z,32.33
2023-02-16T16:19:22.442Z,33.03
2023-02-16T16:21:55.840Z,32.47
2023-02-16T16:24:38.401Z,35.35
2023-02-16T16:27:09.619Z,31.42
2023-02-16T16:29:42.111Z,31.33
2023-02-16T16:32:20.684Z,35.72
2023-02-16T16:34:49.448Z,32.50
2023-02-16T16:37:28.636Z,37.70
2023-02-16T16:40:04.331Z,35.33
2023-02-16T16:42:34.114Z,36.47
2023-02-16T16:45:08.369Z,33.30
2023-02-16T16:47:40.451Z,35.38
2023-02-16T16:50:31.838Z,28.13
2023-02-16T16:53:01.852Z,33.38
2023-02-16T16:55:33.484Z,29.15
2023-02-16T16:58:05.046Z,31.27
2023-02-16T17:00:35.697Z,28.60
2023-02-16T17:03:04.853Z,28.33
2023-02-16T17:05:33.584Z,31.05
2023-02-16T17:08:03.606Z,29.42
2023-02-16T17:10:32.019Z,32.03
2023-02-16T17:13:01.775Z,29.52
2023-02-16T17:15:39.632Z,28.95
2023-02-16T17:18:10.739Z,28.88
2023-02-16T17:20:38.943Z,33.90
2023-02-16T17:23:08.601Z,33.60
2023-02-16T17:25:37.444Z,31.50
2023-02-16T17:28:06.337Z,29.67
2023-02-16T17:30:35.312Z,30.45
2023-02-16T17:33:04.046Z,29.98
2023-02-16T17:35:33.144Z,31.38
2023-02-16T17:38:07.476Z,32.33
2023-02-16T17:40:37.441Z,29.10
2023-02-16T17:43:12.489Z,32.35
2023-02-16T17:45:40.847Z,29.20
2023-02-16T17:48:09.151Z,26.40
2023-02-16T17:50:37.782Z,27.55
2023-02-16T17:53:10.877Z,25.73
2023-02-16T17:55:40.900Z,29.17
2023-02-16T17:58:09.494Z,30.60
2023-02-16T18:00:38.237Z,28.38
2023-02-16T18:03:06.590Z,24.77
2023-02-16T18:05:35.015Z,27.45
2023-02-16T18:08:03.286Z,29.42
2023-02-16T18:10:37.754Z,29.88
2023-02-16T18:13:08.196Z,27.45
2023-02-16T18:15:36.584Z,27.52
2023-02-16T18:18:05.366Z,26.33
2023-02-16T18:20:33.563Z,28.98
2023-02-16T18:23:01.869Z,27.67
2023-02-16T18:25:30.264Z,25.92
2023-02-16T18:27:58.554Z,26.05
2023-02-16T18:30:28.521Z,26.60
2023-02-16T18:32:58.684Z,23.20
2023-02-16T18:35:26.883Z,26.95
2023-02-16T18:37:55.119Z,26.63
2023-02-16T18:40:23.789Z,24.42
2023-02-16T18:42:52.274Z,24.63
2023-02-16T18:45:20.684Z,22.70
2023-02-16T18:47:51.043Z,23.90
2023-02-16T18:50:19.746Z,24.15
2023-02-16T18:52:48.355Z,23.45
2023-02-16T18:55:17.993Z,20.77
2023-02-16T18:57:46.253Z,21.75
2023-02-16T19:00:15.824Z,20.73
2023-02-16T19:02:44.808Z,20.55
2023-02-16T19:05:15.000Z,21.73
2023-02-16T19:07:43.903Z,21.50
2023-02-16T19:10:12.907Z,17.58
2023-02-16T19:12:41.757Z,19.17
2023-02-16T19:15:10.670Z,17.60
2023-02-16T19:17:39.801Z,17.75
2023-02-16T19:20:11.778Z,17.23
2023-02-16T19:22:41.801Z,16.52
2023-02-16T19:25:10.458Z,18.10
2023-02-16T19:27:38.807Z,15.77
2023-02-16T19:30:08.514Z,16.60
2023-02-16T19:32:37.397Z,14.98
2023-02-16T19:35:05.942Z,15.88
2023-02-16T19:37:34.344Z,13.18
2023-02-16T19:40:04.036Z,16.30
2023-02-16T19:42:32.462Z,13.77
2023-02-16T19:45:00.771Z,14.68
2023-02-16T19:47:29.064Z,14.15
2023-02-16T19:49:57.470Z,12.57
2023-02-16T19:52:26.024Z,13.90
2023-02-16T19:54:54.266Z,13.23
2023-02-16T19:57:24.077Z,16.00
2023-02-16T19:59:52.454Z,12.95
2023-02-16T20:02:20.766Z,14.13
2023-02-16T20:04:49.177Z,15.27
2023-02-16T20:07:17.554Z,14.20
2023-02-16T20:09:46.034Z,14.60
2023-02-16T20:12:15.626Z,15.18
2023-02-16T20:14:45.484Z,15.00
2023-02-16T20:17:13.719Z,18.50
2023-02-16T20:19:42.079Z,13.57
2023-02-16T20:22:10.893Z,16.70
2023-02-16T20:24:39.575Z,16.30
2023-02-16T20:27:07.847Z,15.95
2023-02-16T20:29:36.446Z,16.92
2023-02-16T20:32:07.024Z,16.58
2023-02-16T20:34:35.461Z,16.77
2023-02-16T20:37:03.922Z,16.52
2023-02-16T20:39:32.172Z,17.13
2023-02-16T20:42:00.556Z,18.15
2023-02-16T20:44:28.962Z,19.02
2023-02-16T20:46:57.307Z,16.75
2023-02-16T20:49:27.008Z,17.40
2023-02-16T20:51:55.422Z,18.95
2023-02-16T20:54:23.787Z,16.48
2023-02-16T20:56:52.245Z,16.50
2023-02-16T20:59:20.752Z,19.02
2023-02-16T21:01:52.179Z,17.73
2023-02-16T21:04:22.068Z,17.90
2023-02-16T21:06:51.758Z,15.88
2023-02-16T21:09:20.114Z,16.98
2023-02-16T21:11:48.628Z,14.73
2023-02-16T21:14:17.430Z,13.93
2023-02-16T21:16:46.673Z,13.23
2023-02-16T21:19:22.923Z,14.45
2023-02-16T21:21:53.536Z,13.00
2023-02-16T21:24:22.440Z,14.35
2023-02-16T21:26:50.703Z,13.88
2023-02-16T21:29:19.120Z,12.95
2023-02-16T21:31:47.508Z,13.82
2023-02-16T21:34:15.900Z,15.07
2023-02-16T21:36:44.460Z,13.43
2023-02-16T21:39:14.549Z,12.88
2023-02-16T21:41:41.898Z,13.68
2023-02-16T21:44:12.040Z,15.30
2023-02-16T21:46:43.307Z,11.85
2023-02-16T21:49:14.190Z,12.90
2023-02-16T21:51:43.629Z,11.63
2023-02-16T21:54:16.428Z,11.95
2023-02-16T21:56:45.555Z,11.63
2023-02-16T21:59:16.158Z,13.88
2023-02-16T22:01:47.529Z,13.40
2023-02-16T22:04:17.571Z,12.20
2023-02-16T22:06:48.534Z,13.32
2023-02-16T22:09:20.982Z,13.27
2023-02-16T22:11:50.387Z,12.30
2023-02-16T22:14:19.152Z,14.35
2023-02-16T22:16:48.972Z,12.52
2023-02-16T22:19:19.491Z,12.23
2023-02-16T22:21:49.558Z,13.95
2023-02-16T22:24:20.816Z,12.20
2023-02-16T22:26:50.643Z,11.48
2023-02-16T22:29:20.038Z,9.70
2023-02-16T22:31:50.529Z,10.57
2023-02-16T22:34:21.132Z,10.98
2023-02-16T22:36:50.059Z,11.35
2023-02-16T22:39:20.610Z,11.23
2023-02-16T22:41:51.371Z,9.40
2023-02-16T22:44:19.616Z,10.00
2023-02-16T22:46:48.058Z,10.18
2023-02-16T22:49:16.464Z,9.75
2023-02-16T22:51:44.677Z,9.13
2023-02-16T22:54:14.575Z,10.15
2023-02-16T22:56:44.387Z,9.02
2023-02-16T22:59:13.526Z,9.75
2023-02-16T23:01:42.161Z,10.50
2023-02-16T23:04:15.304Z,10.57
2023-02-16T23:06:47.629Z,10.05
2023-02-16T23:09:18.770Z,11.05
2023-02-16T23:11:49.450Z,10.43
2023-02-16T23:14:18.423Z,10.52
2023-02-16T23:16:48.944Z,9.82
2023-02-16T23:19:20.369Z,9.18
2023-02-16T23:21:49.482Z,9.00
2023-02-16T23:24:20.173Z,8.90
2023-02-16T23:26:50.259Z,9.57
2023-02-16T23:29:19.094Z,9.55
2023-02-16T23:31:48.981Z,7.88
2023-02-16T23:34:18.346Z,8.55
2023-02-16T23:36:47.059Z,10.55
2023-02-16T23:39:18.146Z,9.05
2023-02-16T23:41:47.092Z,11.35
2023-02-16T23:44:16.760Z,8.15
2023-02-16T23:46:45.134Z,7.53
2023-02-16T23:49:13.680Z,7.65
2023-02-16T23:51:41.944Z,10.10
2023-02-16T23:54:11.606Z,9.95
2023-02-16T23:56:42.522Z,7.63
2023-02-16T23:59:10.859Z,7.45
